sensor_id;sensor_type;location;lat;lon;timestamp;P1;durP1;ratioP1;P2;durP2;ratioP2
7939;SDS011;4015;48.888;9.226;2022-10-30T00:00:47;18.37;;;7.50;;
7939;SDS011;4015;48.888;9.226;2022-10-30T00:03:13;15.67;;;7.57;;
7939;SDS011;4015;48.888;9.226;2022-10-30T00:05:43;12.20;;;6.93;;
7939;SDS011;4015;48.888;9.226;2022-10-30T00:08:10;16.80;;;7.47;;
7939;SDS011;4015;48.888;9.226;2022-10-30T00:10:37;12.60;;;5.72;;
7939;SDS011;4015;48.888;9.226;2022-10-30T00:13:03;17.90;;;7.80;;
7939;SDS011;4015;48.888;9.226;2022-10-30T00:15:28;13.73;;;6.57;;
7939;SDS011;4015;48.888;9.226;2022-10-30T00:17:53;12.98;;;6.68;;
7939;SDS011;4015;48.888;9.226;2022-10-30T00:20:19;13.07;;;7.67;;
7939;SDS011;4015;48.888;9.226;2022-10-30T00:22:44;9.53;;;6.87;;
7939;SDS011;4015;48.888;9.226;2022-10-30T00:25:10;15.33;;;6.93;;
7939;SDS011;4015;48.888;9.226;2022-10-30T00:27:35;14.50;;;6.97;;
7939;SDS011;4015;48.888;9.226;2022-10-30T00:30:00;14.20;;;6.73;;
7939;SDS011;4015;48.888;9.226;2022-10-30T00:32:26;13.67;;;7.67;;
7939;SDS011;4015;48.888;9.226;2022-10-30T00:34:52;12.73;;;6.73;;
7939;SDS011;4015;48.888;9.226;2022-10-30T00:37:17;13.20;;;6.47;;
7939;SDS011;4015;48.888;9.226;2022-10-30T00:39:42;10.00;;;6.33;;
7939;SDS011;4015;48.888;9.226;2022-10-30T00:42:10;12.73;;;6.60;;
7939;SDS011;4015;48.888;9.226;2022-10-30T00:49:56;13.50;;;6.75;;
7939;SDS011;4015;48.888;9.226;2022-10-30T00:52:32;10.43;;;6.47;;
7939;SDS011;4015;48.888;9.226;2022-10-30T00:55:01;11.00;;;6.00;;
7939;SDS011;4015;48.888;9.226;2022-10-30T00:57:31;12.43;;;6.17;;
7939;SDS011;4015;48.888;9.226;2022-10-30T00:59:58;18.77;;;6.83;;
7939;SDS011;4015;48.888;9.226;2022-10-30T01:02:24;12.25;;;5.70;;
7939;SDS011;4015;48.888;9.226;2022-10-30T01:04:49;10.87;;;6.83;;
7939;SDS011;4015;48.888;9.226;2022-10-30T01:07:17;10.20;;;6.17;;
7939;SDS011;4015;48.888;9.226;2022-10-30T01:09:42;12.57;;;6.77;;
7939;SDS011;4015;48.888;9.226;2022-10-30T01:12:10;12.60;;;6.07;;
7939;SDS011;4015;48.888;9.226;2022-10-30T01:14:36;11.40;;;5.80;;
7939;SDS011;4015;48.888;9.226;2022-10-30T01:22:34;10.00;;;6.40;;
7939;SDS011;4015;48.888;9.226;2022-10-30T01:25:37;10.40;;;5.87;;
7939;SDS011;4015;48.888;9.226;2022-10-30T01:37:11;12.17;;;6.13;;
7939;SDS011;4015;48.888;9.226;2022-10-30T01:39:43;15.37;;;6.43;;
7939;SDS011;4015;48.888;9.226;2022-10-30T01:44:35;17.20;;;6.53;;
7939;SDS011;4015;48.888;9.226;2022-10-30T01:52:46;14.20;;;6.57;;
7939;SDS011;4015;48.888;9.226;2022-10-30T01:57:56;10.67;;;6.03;;
7939;SDS011;4015;48.888;9.226;2022-10-30T02:00:26;15.13;;;7.07;;
7939;SDS011;4015;48.888;9.226;2022-10-30T02:02:51;13.27;;;7.03;;
7939;SDS011;4015;48.888;9.226;2022-10-30T02:05:24;11.73;;;7.57;;
7939;SDS011;4015;48.888;9.226;2022-10-30T02:07:57;11.90;;;7.03;;
7939;SDS011;4015;48.888;9.226;2022-10-30T02:10:22;13.07;;;6.43;;
7939;SDS011;4015;48.888;9.226;2022-10-30T02:12:48;16.90;;;7.17;;
7939;SDS011;4015;48.888;9.226;2022-10-30T02:15:13;10.40;;;6.97;;
7939;SDS011;4015;48.888;9.226;2022-10-30T02:17:39;14.60;;;7.37;;
7939;SDS011;4015;48.888;9.226;2022-10-30T02:20:05;14.20;;;7.40;;
7939;SDS011;4015;48.888;9.226;2022-10-30T02:22:31;12.63;;;8.33;;
7939;SDS011;4015;48.888;9.226;2022-10-30T02:24:57;12.80;;;7.10;;
7939;SDS011;4015;48.888;9.226;2022-10-30T02:27:22;13.07;;;7.40;;
7939;SDS011;4015;48.888;9.226;2022-10-30T02:29:47;13.80;;;9.07;;
7939;SDS011;4015;48.888;9.226;2022-10-30T02:32:13;12.13;;;7.40;;
7939;SDS011;4015;48.888;9.226;2022-10-30T02:34:38;13.53;;;7.60;;
7939;SDS011;4015;48.888;9.226;2022-10-30T02:37:03;18.63;;;8.20;;
7939;SDS011;4015;48.888;9.226;2022-10-30T02:39:29;15.43;;;7.60;;
7939;SDS011;4015;48.888;9.226;2022-10-30T02:41:54;12.67;;;7.90;;
7939;SDS011;4015;48.888;9.226;2022-10-30T02:44:19;11.47;;;7.23;;
7939;SDS011;4015;48.888;9.226;2022-10-30T02:46:45;13.47;;;6.77;;
7939;SDS011;4015;48.888;9.226;2022-10-30T02:49:10;13.30;;;6.50;;
7939;SDS011;4015;48.888;9.226;2022-10-30T02:51:36;14.67;;;7.13;;
7939;SDS011;4015;48.888;9.226;2022-10-30T02:54:01;12.23;;;7.67;;
7939;SDS011;4015;48.888;9.226;2022-10-30T02:56:26;12.57;;;7.17;;
7939;SDS011;4015;48.888;9.226;2022-10-30T02:58:53;11.80;;;6.93;;
7939;SDS011;4015;48.888;9.226;2022-10-30T03:01:20;15.63;;;7.23;;
7939;SDS011;4015;48.888;9.226;2022-10-30T03:03:45;16.67;;;8.50;;
7939;SDS011;4015;48.888;9.226;2022-10-30T03:06:12;14.33;;;7.17;;
7939;SDS011;4015;48.888;9.226;2022-10-30T03:08:39;16.47;;;7.87;;
7939;SDS011;4015;48.888;9.226;2022-10-30T03:11:07;12.00;;;8.70;;
7939;SDS011;4015;48.888;9.226;2022-10-30T03:13:35;15.50;;;8.33;;
7939;SDS011;4015;48.888;9.226;2022-10-30T03:16:02;17.07;;;8.57;;
7939;SDS011;4015;48.888;9.226;2022-10-30T03:18:30;16.37;;;7.70;;
7939;SDS011;4015;48.888;9.226;2022-10-30T03:21:00;15.97;;;7.93;;
7939;SDS011;4015;48.888;9.226;2022-10-30T03:23:26;21.20;;;8.37;;
7939;SDS011;4015;48.888;9.226;2022-10-30T03:25:52;13.90;;;8.07;;
7939;SDS011;4015;48.888;9.226;2022-10-30T03:28:20;15.80;;;8.30;;
7939;SDS011;4015;48.888;9.226;2022-10-30T03:30:46;15.77;;;8.40;;
7939;SDS011;4015;48.888;9.226;2022-10-30T03:33:12;13.37;;;8.07;;
7939;SDS011;4015;48.888;9.226;2022-10-30T03:35:37;14.97;;;8.17;;
7939;SDS011;4015;48.888;9.226;2022-10-30T03:38:03;15.00;;;7.87;;
7939;SDS011;4015;48.888;9.226;2022-10-30T03:40:28;10.23;;;7.00;;
7939;SDS011;4015;48.888;9.226;2022-10-30T03:42:53;12.63;;;6.37;;
7939;SDS011;4015;48.888;9.226;2022-10-30T03:45:19;11.63;;;6.60;;
7939;SDS011;4015;48.888;9.226;2022-10-30T03:47:44;13.73;;;6.83;;
7939;SDS011;4015;48.888;9.226;2022-10-30T03:50:09;10.30;;;6.17;;
7939;SDS011;4015;48.888;9.226;2022-10-30T03:52:35;14.27;;;8.00;;
7939;SDS011;4015;48.888;9.226;2022-10-30T03:55:00;11.97;;;7.27;;
7939;SDS011;4015;48.888;9.226;2022-10-30T03:57:25;17.47;;;8.57;;
7939;SDS011;4015;48.888;9.226;2022-10-30T03:59:51;15.80;;;7.67;;
7939;SDS011;4015;48.888;9.226;2022-10-30T04:02:16;15.63;;;7.50;;
7939;SDS011;4015;48.888;9.226;2022-10-30T04:04:41;13.00;;;7.10;;
7939;SDS011;4015;48.888;9.226;2022-10-30T04:07:07;12.63;;;7.43;;
7939;SDS011;4015;48.888;9.226;2022-10-30T04:09:32;11.97;;;6.63;;
7939;SDS011;4015;48.888;9.226;2022-10-30T04:11:57;15.43;;;7.17;;
7939;SDS011;4015;48.888;9.226;2022-10-30T04:14:23;16.37;;;7.23;;
7939;SDS011;4015;48.888;9.226;2022-10-30T04:16:48;11.80;;;6.23;;
7939;SDS011;4015;48.888;9.226;2022-10-30T04:19:13;17.67;;;8.27;;
7939;SDS011;4015;48.888;9.226;2022-10-30T04:21:39;15.07;;;6.97;;
7939;SDS011;4015;48.888;9.226;2022-10-30T04:24:07;16.33;;;7.50;;
7939;SDS011;4015;48.888;9.226;2022-10-30T04:26:32;11.90;;;6.80;;
7939;SDS011;4015;48.888;9.226;2022-10-30T04:28:57;14.83;;;7.37;;
7939;SDS011;4015;48.888;9.226;2022-10-30T04:31:23;15.53;;;6.57;;
7939;SDS011;4015;48.888;9.226;2022-10-30T04:33:48;14.10;;;7.43;;
7939;SDS011;4015;48.888;9.226;2022-10-30T04:36:13;14.73;;;7.03;;
7939;SDS011;4015;48.888;9.226;2022-10-30T04:38:41;14.10;;;7.10;;
7939;SDS011;4015;48.888;9.226;2022-10-30T04:41:07;17.50;;;7.97;;
7939;SDS011;4015;48.888;9.226;2022-10-30T04:43:32;11.93;;;7.50;;
7939;SDS011;4015;48.888;9.226;2022-10-30T04:45:58;13.57;;;7.33;;
7939;SDS011;4015;48.888;9.226;2022-10-30T04:48:23;11.90;;;6.87;;
7939;SDS011;4015;48.888;9.226;2022-10-30T04:50:48;13.97;;;7.10;;
7939;SDS011;4015;48.888;9.226;2022-10-30T04:53:15;14.77;;;6.97;;
7939;SDS011;4015;48.888;9.226;2022-10-30T04:55:42;17.50;;;7.47;;
7939;SDS011;4015;48.888;9.226;2022-10-30T04:58:08;14.80;;;6.27;;
7939;SDS011;4015;48.888;9.226;2022-10-30T05:00:35;14.57;;;7.23;;
7939;SDS011;4015;48.888;9.226;2022-10-30T05:03:00;14.33;;;7.07;;
7939;SDS011;4015;48.888;9.226;2022-10-30T05:05:27;13.33;;;7.03;;
7939;SDS011;4015;48.888;9.226;2022-10-30T05:07:53;11.40;;;6.47;;
7939;SDS011;4015;48.888;9.226;2022-10-30T05:10:18;14.40;;;7.80;;
7939;SDS011;4015;48.888;9.226;2022-10-30T05:12:44;18.20;;;7.20;;
7939;SDS011;4015;48.888;9.226;2022-10-30T05:15:10;13.97;;;6.90;;
7939;SDS011;4015;48.888;9.226;2022-10-30T05:17:37;15.93;;;7.03;;
7939;SDS011;4015;48.888;9.226;2022-10-30T05:20:03;14.60;;;8.00;;
7939;SDS011;4015;48.888;9.226;2022-10-30T05:22:29;18.40;;;7.50;;
7939;SDS011;4015;48.888;9.226;2022-10-30T05:24:54;11.70;;;6.67;;
7939;SDS011;4015;48.888;9.226;2022-10-30T05:27:19;15.63;;;7.60;;
7939;SDS011;4015;48.888;9.226;2022-10-30T05:29:45;10.43;;;6.70;;
7939;SDS011;4015;48.888;9.226;2022-10-30T05:32:10;12.33;;;6.53;;
7939;SDS011;4015;48.888;9.226;2022-10-30T05:34:35;14.17;;;6.60;;
7939;SDS011;4015;48.888;9.226;2022-10-30T05:37:00;19.63;;;7.13;;
7939;SDS011;4015;48.888;9.226;2022-10-30T05:39:26;15.40;;;6.80;;
7939;SDS011;4015;48.888;9.226;2022-10-30T05:41:52;14.77;;;7.87;;
7939;SDS011;4015;48.888;9.226;2022-10-30T05:44:17;15.33;;;7.73;;
7939;SDS011;4015;48.888;9.226;2022-10-30T05:46:43;16.20;;;7.00;;
7939;SDS011;4015;48.888;9.226;2022-10-30T05:49:08;13.23;;;7.07;;
7939;SDS011;4015;48.888;9.226;2022-10-30T05:51:33;12.17;;;6.17;;
7939;SDS011;4015;48.888;9.226;2022-10-30T05:53:59;17.13;;;7.20;;
7939;SDS011;4015;48.888;9.226;2022-10-30T05:56:24;12.43;;;6.23;;
7939;SDS011;4015;48.888;9.226;2022-10-30T05:58:49;10.40;;;6.50;;
7939;SDS011;4015;48.888;9.226;2022-10-30T06:01:15;14.67;;;6.67;;
7939;SDS011;4015;48.888;9.226;2022-10-30T06:03:41;14.53;;;7.63;;
7939;SDS011;4015;48.888;9.226;2022-10-30T06:06:07;13.83;;;7.13;;
7939;SDS011;4015;48.888;9.226;2022-10-30T06:08:32;13.10;;;7.30;;
7939;SDS011;4015;48.888;9.226;2022-10-30T06:10:58;18.50;;;6.67;;
7939;SDS011;4015;48.888;9.226;2022-10-30T06:13:23;13.07;;;6.77;;
7939;SDS011;4015;48.888;9.226;2022-10-30T06:15:48;14.77;;;6.90;;
7939;SDS011;4015;48.888;9.226;2022-10-30T06:18:14;9.77;;;6.03;;
7939;SDS011;4015;48.888;9.226;2022-10-30T06:20:39;14.93;;;6.00;;
7939;SDS011;4015;48.888;9.226;2022-10-30T06:23:05;13.20;;;6.77;;
7939;SDS011;4015;48.888;9.226;2022-10-30T06:25:33;13.90;;;6.20;;
7939;SDS011;4015;48.888;9.226;2022-10-30T06:27:59;9.73;;;5.97;;
7939;SDS011;4015;48.888;9.226;2022-10-30T06:30:25;13.87;;;6.60;;
7939;SDS011;4015;48.888;9.226;2022-10-30T06:33:00;11.57;;;6.93;;
7939;SDS011;4015;48.888;9.226;2022-10-30T06:35:27;14.90;;;6.20;;
7939;SDS011;4015;48.888;9.226;2022-10-30T06:37:53;15.10;;;6.67;;
7939;SDS011;4015;48.888;9.226;2022-10-30T06:40:20;10.50;;;5.67;;
7939;SDS011;4015;48.888;9.226;2022-10-30T06:42:47;14.17;;;6.67;;
7939;SDS011;4015;48.888;9.226;2022-10-30T06:45:16;14.07;;;5.93;;
7939;SDS011;4015;48.888;9.226;2022-10-30T06:47:42;13.53;;;6.20;;
7939;SDS011;4015;48.888;9.226;2022-10-30T06:50:09;11.83;;;6.10;;
7939;SDS011;4015;48.888;9.226;2022-10-30T06:52:36;12.77;;;6.60;;
7939;SDS011;4015;48.888;9.226;2022-10-30T06:55:02;10.77;;;6.10;;
7939;SDS011;4015;48.888;9.226;2022-10-30T06:57:28;13.97;;;6.57;;
7939;SDS011;4015;48.888;9.226;2022-10-30T06:59:53;14.07;;;6.70;;
7939;SDS011;4015;48.888;9.226;2022-10-30T07:02:19;15.43;;;6.87;;
7939;SDS011;4015;48.888;9.226;2022-10-30T07:04:44;18.77;;;7.03;;
7939;SDS011;4015;48.888;9.226;2022-10-30T07:07:10;10.20;;;6.47;;
7939;SDS011;4015;48.888;9.226;2022-10-30T07:09:39;14.77;;;6.37;;
7939;SDS011;4015;48.888;9.226;2022-10-30T07:12:05;10.57;;;5.30;;
7939;SDS011;4015;48.888;9.226;2022-10-30T07:14:31;15.00;;;5.30;;
7939;SDS011;4015;48.888;9.226;2022-10-30T07:16:56;8.40;;;5.17;;
7939;SDS011;4015;48.888;9.226;2022-10-30T07:19:22;10.40;;;4.43;;
7939;SDS011;4015;48.888;9.226;2022-10-30T07:21:47;11.73;;;5.20;;
7939;SDS011;4015;48.888;9.226;2022-10-30T07:24:12;11.90;;;5.43;;
7939;SDS011;4015;48.888;9.226;2022-10-30T07:26:38;10.83;;;4.70;;
7939;SDS011;4015;48.888;9.226;2022-10-30T07:29:03;9.03;;;5.20;;
7939;SDS011;4015;48.888;9.226;2022-10-30T07:31:29;13.00;;;4.63;;
7939;SDS011;4015;48.888;9.226;2022-10-30T07:33:55;11.90;;;4.90;;
7939;SDS011;4015;48.888;9.226;2022-10-30T07:36:21;10.00;;;4.65;;
7939;SDS011;4015;48.888;9.226;2022-10-30T07:38:46;8.32;;;4.90;;
7939;SDS011;4015;48.888;9.226;2022-10-30T07:41:12;8.43;;;4.82;;
7939;SDS011;4015;48.888;9.226;2022-10-30T07:43:38;10.85;;;4.70;;
7939;SDS011;4015;48.888;9.226;2022-10-30T07:46:03;13.82;;;5.07;;
7939;SDS011;4015;48.888;9.226;2022-10-30T07:48:29;12.60;;;4.50;;
7939;SDS011;4015;48.888;9.226;2022-10-30T07:50:54;12.50;;;5.60;;
7939;SDS011;4015;48.888;9.226;2022-10-30T07:53:19;9.98;;;4.82;;
7939;SDS011;4015;48.888;9.226;2022-10-30T07:55:45;11.35;;;4.80;;
7939;SDS011;4015;48.888;9.226;2022-10-30T07:58:10;11.00;;;4.85;;
7939;SDS011;4015;48.888;9.226;2022-10-30T08:00:35;14.60;;;5.45;;
7939;SDS011;4015;48.888;9.226;2022-10-30T08:03:01;16.00;;;5.05;;
7939;SDS011;4015;48.888;9.226;2022-10-30T08:05:26;10.98;;;5.13;;
7939;SDS011;4015;48.888;9.226;2022-10-30T08:07:51;11.77;;;5.38;;
7939;SDS011;4015;48.888;9.226;2022-10-30T08:10:17;12.60;;;4.78;;
7939;SDS011;4015;48.888;9.226;2022-10-30T08:12:42;13.23;;;5.55;;
7939;SDS011;4015;48.888;9.226;2022-10-30T08:15:09;11.70;;;5.55;;
7939;SDS011;4015;48.888;9.226;2022-10-30T08:17:46;12.35;;;5.20;;
7939;SDS011;4015;48.888;9.226;2022-10-30T08:20:13;12.57;;;4.63;;
7939;SDS011;4015;48.888;9.226;2022-10-30T08:22:45;12.68;;;4.63;;
7939;SDS011;4015;48.888;9.226;2022-10-30T08:25:19;9.13;;;5.43;;
7939;SDS011;4015;48.888;9.226;2022-10-30T08:30:22;13.00;;;4.78;;
7939;SDS011;4015;48.888;9.226;2022-10-30T08:32:49;11.93;;;4.85;;
7939;SDS011;4015;48.888;9.226;2022-10-30T08:35:15;10.40;;;5.38;;
7939;SDS011;4015;48.888;9.226;2022-10-30T08:37:40;15.98;;;5.28;;
7939;SDS011;4015;48.888;9.226;2022-10-30T08:40:06;8.50;;;4.65;;
7939;SDS011;4015;48.888;9.226;2022-10-30T08:42:32;10.60;;;5.15;;
7939;SDS011;4015;48.888;9.226;2022-10-30T08:44:57;14.38;;;5.07;;
7939;SDS011;4015;48.888;9.226;2022-10-30T08:47:23;15.45;;;5.53;;
7939;SDS011;4015;48.888;9.226;2022-10-30T08:49:48;10.82;;;5.13;;
7939;SDS011;4015;48.888;9.226;2022-10-30T08:52:13;11.05;;;5.60;;
7939;SDS011;4015;48.888;9.226;2022-10-30T08:54:38;8.15;;;5.30;;
7939;SDS011;4015;48.888;9.226;2022-10-30T08:57:04;11.85;;;5.38;;
7939;SDS011;4015;48.888;9.226;2022-10-30T08:59:29;9.52;;;4.85;;
7939;SDS011;4015;48.888;9.226;2022-10-30T09:01:54;8.98;;;4.50;;
7939;SDS011;4015;48.888;9.226;2022-10-30T09:04:20;9.45;;;5.03;;
7939;SDS011;4015;48.888;9.226;2022-10-30T09:06:45;13.70;;;4.63;;
7939;SDS011;4015;48.888;9.226;2022-10-30T09:09:11;17.35;;;4.10;;
7939;SDS011;4015;48.888;9.226;2022-10-30T09:11:37;13.43;;;4.35;;
7939;SDS011;4015;48.888;9.226;2022-10-30T09:14:02;9.90;;;4.40;;
7939;SDS011;4015;48.888;9.226;2022-10-30T09:16:27;11.52;;;4.57;;
7939;SDS011;4015;48.888;9.226;2022-10-30T09:18:53;12.07;;;4.40;;
7939;SDS011;4015;48.888;9.226;2022-10-30T09:21:18;9.70;;;4.10;;
7939;SDS011;4015;48.888;9.226;2022-10-30T09:23:43;12.38;;;5.20;;
7939;SDS011;4015;48.888;9.226;2022-10-30T09:26:09;12.05;;;4.30;;
7939;SDS011;4015;48.888;9.226;2022-10-30T09:28:35;9.73;;;4.40;;
7939;SDS011;4015;48.888;9.226;2022-10-30T09:31:00;8.75;;;4.20;;
7939;SDS011;4015;48.888;9.226;2022-10-30T09:33:26;6.90;;;3.75;;
7939;SDS011;4015;48.888;9.226;2022-10-30T09:35:51;15.80;;;4.40;;
7939;SDS011;4015;48.888;9.226;2022-10-30T09:38:16;9.50;;;4.25;;
7939;SDS011;4015;48.888;9.226;2022-10-30T09:43:18;10.52;;;4.35;;
7939;SDS011;4015;48.888;9.226;2022-10-30T09:45:59;9.52;;;4.30;;
7939;SDS011;4015;48.888;9.226;2022-10-30T09:48:46;9.27;;;4.40;;
7939;SDS011;4015;48.888;9.226;2022-10-30T09:57:29;10.85;;;4.50;;
7939;SDS011;4015;48.888;9.226;2022-10-30T10:05:28;10.25;;;4.00;;
7939;SDS011;4015;48.888;9.226;2022-10-30T10:08:04;9.75;;;4.03;;
7939;SDS011;4015;48.888;9.226;2022-10-30T10:10:41;6.22;;;3.72;;
7939;SDS011;4015;48.888;9.226;2022-10-30T10:13:19;10.77;;;3.83;;
7939;SDS011;4015;48.888;9.226;2022-10-30T10:15:58;10.85;;;3.85;;
7939;SDS011;4015;48.888;9.226;2022-10-30T10:18:39;6.18;;;3.55;;
7939;SDS011;4015;48.888;9.226;2022-10-30T10:21:29;6.10;;;3.80;;
7939;SDS011;4015;48.888;9.226;2022-10-30T10:24:01;9.68;;;3.92;;
7939;SDS011;4015;48.888;9.226;2022-10-30T10:37:22;7.82;;;4.32;;
7939;SDS011;4015;48.888;9.226;2022-10-30T10:40:21;6.78;;;3.47;;
7939;SDS011;4015;48.888;9.226;2022-10-30T10:43:57;6.72;;;3.45;;
7939;SDS011;4015;48.888;9.226;2022-10-30T10:54:03;8.95;;;3.88;;
7939;SDS011;4015;48.888;9.226;2022-10-30T10:56:39;9.90;;;4.15;;
7939;SDS011;4015;48.888;9.226;2022-10-30T10:59:18;9.20;;;3.75;;
7939;SDS011;4015;48.888;9.226;2022-10-30T11:01:51;9.95;;;3.95;;
7939;SDS011;4015;48.888;9.226;2022-10-30T11:06:54;9.55;;;4.10;;
7939;SDS011;4015;48.888;9.226;2022-10-30T11:09:22;10.88;;;3.83;;
7939;SDS011;4015;48.888;9.226;2022-10-30T11:11:49;8.80;;;4.10;;
7939;SDS011;4015;48.888;9.226;2022-10-30T11:14:23;9.95;;;3.83;;
7939;SDS011;4015;48.888;9.226;2022-10-30T11:19:41;8.02;;;3.80;;
7939;SDS011;4015;48.888;9.226;2022-10-30T11:22:15;7.85;;;4.07;;
7939;SDS011;4015;48.888;9.226;2022-10-30T11:24:47;8.00;;;4.25;;
7939;SDS011;4015;48.888;9.226;2022-10-30T11:32:19;6.80;;;3.63;;
7939;SDS011;4015;48.888;9.226;2022-10-30T11:34:46;7.60;;;4.18;;
7939;SDS011;4015;48.888;9.226;2022-10-30T11:37:31;14.85;;;4.25;;
7939;SDS011;4015;48.888;9.226;2022-10-30T11:40:05;7.63;;;3.08;;
7939;SDS011;4015;48.888;9.226;2022-10-30T11:42:41;7.65;;;3.67;;
7939;SDS011;4015;48.888;9.226;2022-10-30T11:45:17;6.35;;;3.53;;
7939;SDS011;4015;48.888;9.226;2022-10-30T11:47:48;11.30;;;3.78;;
7939;SDS011;4015;48.888;9.226;2022-10-30T11:50:15;9.63;;;3.33;;
7939;SDS011;4015;48.888;9.226;2022-10-30T11:52:44;8.68;;;3.83;;
7939;SDS011;4015;48.888;9.226;2022-10-30T11:57:59;9.50;;;4.00;;
7939;SDS011;4015;48.888;9.226;2022-10-30T12:00:26;9.10;;;3.88;;
7939;SDS011;4015;48.888;9.226;2022-10-30T12:02:55;8.75;;;4.10;;
7939;SDS011;4015;48.888;9.226;2022-10-30T12:10:30;9.27;;;3.13;;
7939;SDS011;4015;48.888;9.226;2022-10-30T12:12:56;12.07;;;4.53;;
7939;SDS011;4015;48.888;9.226;2022-10-30T12:15:28;5.30;;;3.05;;
7939;SDS011;4015;48.888;9.226;2022-10-30T12:18:01;10.43;;;3.67;;
7939;SDS011;4015;48.888;9.226;2022-10-30T12:20:29;12.35;;;3.25;;
7939;SDS011;4015;48.888;9.226;2022-10-30T12:22:55;9.68;;;3.53;;
7939;SDS011;4015;48.888;9.226;2022-10-30T12:25:23;9.32;;;3.83;;
7939;SDS011;4015;48.888;9.226;2022-10-30T12:27:49;9.02;;;3.40;;
7939;SDS011;4015;48.888;9.226;2022-10-30T12:30:22;8.43;;;3.65;;
7939;SDS011;4015;48.888;9.226;2022-10-30T12:32:52;10.23;;;2.85;;
7939;SDS011;4015;48.888;9.226;2022-10-30T12:35:33;8.32;;;3.20;;
7939;SDS011;4015;48.888;9.226;2022-10-30T12:38:02;9.50;;;3.45;;
7939;SDS011;4015;48.888;9.226;2022-10-30T12:40:37;6.15;;;3.15;;
7939;SDS011;4015;48.888;9.226;2022-10-30T12:43:12;8.43;;;3.83;;
7939;SDS011;4015;48.888;9.226;2022-10-30T12:45:55;6.53;;;4.10;;
7939;SDS011;4015;48.888;9.226;2022-10-30T12:48:32;8.43;;;3.55;;
7939;SDS011;4015;48.888;9.226;2022-10-30T12:53:45;9.85;;;3.28;;
7939;SDS011;4015;48.888;9.226;2022-10-30T12:56:37;7.07;;;3.95;;
7939;SDS011;4015;48.888;9.226;2022-10-30T13:01:38;11.68;;;3.58;;
7939;SDS011;4015;48.888;9.226;2022-10-30T13:04:23;10.02;;;3.15;;
7939;SDS011;4015;48.888;9.226;2022-10-30T13:09:23;7.18;;;3.22;;
7939;SDS011;4015;48.888;9.226;2022-10-30T13:14:53;5.32;;;2.95;;
7939;SDS011;4015;48.888;9.226;2022-10-30T13:17:23;6.75;;;3.03;;
7939;SDS011;4015;48.888;9.226;2022-10-30T13:19:48;12.20;;;3.45;;
7939;SDS011;4015;48.888;9.226;2022-10-30T13:30:16;7.32;;;3.40;;
7939;SDS011;4015;48.888;9.226;2022-10-30T13:35:24;4.72;;;3.35;;
7939;SDS011;4015;48.888;9.226;2022-10-30T13:51:43;8.20;;;3.90;;
7939;SDS011;4015;48.888;9.226;2022-10-30T13:54:17;6.88;;;3.35;;
7939;SDS011;4015;48.888;9.226;2022-10-30T13:56:45;9.07;;;4.55;;
7939;SDS011;4015;48.888;9.226;2022-10-30T14:01:48;6.60;;;3.65;;
7939;SDS011;4015;48.888;9.226;2022-10-30T14:07:28;13.13;;;4.20;;
7939;SDS011;4015;48.888;9.226;2022-10-30T14:12:49;6.72;;;4.00;;
7939;SDS011;4015;48.888;9.226;2022-10-30T14:20:41;8.30;;;3.67;;
7939;SDS011;4015;48.888;9.226;2022-10-30T14:28:31;11.10;;;4.75;;
7939;SDS011;4015;48.888;9.226;2022-10-30T14:31:05;9.30;;;4.65;;
7939;SDS011;4015;48.888;9.226;2022-10-30T14:36:18;12.02;;;4.72;;
7939;SDS011;4015;48.888;9.226;2022-10-30T14:47:52;10.80;;;4.68;;
7939;SDS011;4015;48.888;9.226;2022-10-30T14:50:17;10.90;;;5.05;;
7939;SDS011;4015;48.888;9.226;2022-10-30T14:55:46;9.13;;;4.50;;
7939;SDS011;4015;48.888;9.226;2022-10-30T14:58:42;12.50;;;3.95;;
7939;SDS011;4015;48.888;9.226;2022-10-30T15:01:19;9.05;;;5.18;;
7939;SDS011;4015;48.888;9.226;2022-10-30T15:06:30;9.10;;;5.78;;
7939;SDS011;4015;48.888;9.226;2022-10-30T15:11:50;9.73;;;4.75;;
7939;SDS011;4015;48.888;9.226;2022-10-30T15:14:27;12.25;;;5.45;;
7939;SDS011;4015;48.888;9.226;2022-10-30T15:16:54;7.10;;;5.30;;
7939;SDS011;4015;48.888;9.226;2022-10-30T15:19:20;14.13;;;6.22;;
7939;SDS011;4015;48.888;9.226;2022-10-30T15:21:52;9.23;;;5.38;;
7939;SDS011;4015;48.888;9.226;2022-10-30T15:24:20;11.48;;;5.78;;
7939;SDS011;4015;48.888;9.226;2022-10-30T15:26:57;17.25;;;9.15;;
7939;SDS011;4015;48.888;9.226;2022-10-30T15:29:25;12.63;;;6.90;;
7939;SDS011;4015;48.888;9.226;2022-10-30T15:32:01;13.63;;;6.10;;
7939;SDS011;4015;48.888;9.226;2022-10-30T15:34:29;15.80;;;7.13;;
7939;SDS011;4015;48.888;9.226;2022-10-30T15:36:57;10.10;;;5.38;;
7939;SDS011;4015;48.888;9.226;2022-10-30T15:39:22;11.93;;;5.28;;
7939;SDS011;4015;48.888;9.226;2022-10-30T15:44:38;10.70;;;5.30;;
7939;SDS011;4015;48.888;9.226;2022-10-30T15:47:04;12.07;;;4.88;;
7939;SDS011;4015;48.888;9.226;2022-10-30T15:49:45;9.70;;;5.00;;
7939;SDS011;4015;48.888;9.226;2022-10-30T15:52:15;12.18;;;4.88;;
7939;SDS011;4015;48.888;9.226;2022-10-30T15:54:44;12.05;;;5.43;;
7939;SDS011;4015;48.888;9.226;2022-10-30T15:57:15;13.10;;;4.93;;
7939;SDS011;4015;48.888;9.226;2022-10-30T15:59:50;10.95;;;4.97;;
7939;SDS011;4015;48.888;9.226;2022-10-30T16:02:19;12.68;;;5.43;;
7939;SDS011;4015;48.888;9.226;2022-10-30T16:04:46;10.18;;;5.07;;
7939;SDS011;4015;48.888;9.226;2022-10-30T16:07:16;12.13;;;5.20;;
7939;SDS011;4015;48.888;9.226;2022-10-30T16:09:51;12.77;;;5.40;;
7939;SDS011;4015;48.888;9.226;2022-10-30T16:12:16;11.90;;;5.70;;
7939;SDS011;4015;48.888;9.226;2022-10-30T16:14:42;11.45;;;4.50;;
7939;SDS011;4015;48.888;9.226;2022-10-30T16:17:07;7.43;;;4.28;;
7939;SDS011;4015;48.888;9.226;2022-10-30T16:19:38;13.35;;;4.15;;
7939;SDS011;4015;48.888;9.226;2022-10-30T16:22:13;11.45;;;5.35;;
7939;SDS011;4015;48.888;9.226;2022-10-30T16:24:41;8.68;;;4.70;;
7939;SDS011;4015;48.888;9.226;2022-10-30T16:27:13;12.38;;;5.38;;
7939;SDS011;4015;48.888;9.226;2022-10-30T16:29:50;13.50;;;6.03;;
7939;SDS011;4015;48.888;9.226;2022-10-30T16:32:19;14.73;;;6.07;;
7939;SDS011;4015;48.888;9.226;2022-10-30T16:34:47;9.90;;;5.38;;
7939;SDS011;4015;48.888;9.226;2022-10-30T16:37:21;11.98;;;5.70;;
7939;SDS011;4015;48.888;9.226;2022-10-30T16:39:51;9.30;;;4.72;;
7939;SDS011;4015;48.888;9.226;2022-10-30T16:42:19;13.95;;;5.72;;
7939;SDS011;4015;48.888;9.226;2022-10-30T16:44:45;11.98;;;4.55;;
7939;SDS011;4015;48.888;9.226;2022-10-30T16:49:50;11.38;;;5.88;;
7939;SDS011;4015;48.888;9.226;2022-10-30T16:52:20;10.45;;;5.93;;
7939;SDS011;4015;48.888;9.226;2022-10-30T16:54:58;13.35;;;7.07;;
7939;SDS011;4015;48.888;9.226;2022-10-30T16:57:42;13.02;;;8.02;;
7939;SDS011;4015;48.888;9.226;2022-10-30T17:00:19;17.42;;;11.40;;
7939;SDS011;4015;48.888;9.226;2022-10-30T17:02:46;18.50;;;8.55;;
7939;SDS011;4015;48.888;9.226;2022-10-30T17:05:46;19.48;;;9.50;;
7939;SDS011;4015;48.888;9.226;2022-10-30T17:10:54;18.25;;;9.52;;
7939;SDS011;4015;48.888;9.226;2022-10-30T17:13:29;19.60;;;10.27;;
7939;SDS011;4015;48.888;9.226;2022-10-30T17:18:47;23.75;;;10.20;;
7939;SDS011;4015;48.888;9.226;2022-10-30T17:21:15;16.85;;;9.20;;
7939;SDS011;4015;48.888;9.226;2022-10-30T17:23:47;15.23;;;8.43;;
7939;SDS011;4015;48.888;9.226;2022-10-30T17:26:14;12.07;;;8.30;;
7939;SDS011;4015;48.888;9.226;2022-10-30T17:28:40;15.23;;;8.55;;
7939;SDS011;4015;48.888;9.226;2022-10-30T17:36:36;14.18;;;8.63;;
7939;SDS011;4015;48.888;9.226;2022-10-30T17:39:01;12.55;;;7.65;;
7939;SDS011;4015;48.888;9.226;2022-10-30T17:41:27;12.15;;;7.28;;
7939;SDS011;4015;48.888;9.226;2022-10-30T17:43:53;11.25;;;7.22;;
7939;SDS011;4015;48.888;9.226;2022-10-30T17:46:20;11.05;;;7.43;;
7939;SDS011;4015;48.888;9.226;2022-10-30T17:48:45;15.45;;;7.38;;
7939;SDS011;4015;48.888;9.226;2022-10-30T17:51:11;15.68;;;7.82;;
7939;SDS011;4015;48.888;9.226;2022-10-30T17:53:37;14.77;;;7.78;;
7939;SDS011;4015;48.888;9.226;2022-10-30T17:58:51;13.35;;;7.47;;
7939;SDS011;4015;48.888;9.226;2022-10-30T18:01:20;16.65;;;7.88;;
7939;SDS011;4015;48.888;9.226;2022-10-30T18:03:47;12.82;;;8.00;;
7939;SDS011;4015;48.888;9.226;2022-10-30T18:06:15;16.67;;;8.90;;
7939;SDS011;4015;48.888;9.226;2022-10-30T18:08:42;15.05;;;8.77;;
7939;SDS011;4015;48.888;9.226;2022-10-30T18:11:09;15.75;;;9.05;;